North West River, Canada
Current Conditions -  °F | °C
As of 6:00 PM on Sunday 23 Nov 2014 (Local Time) from CYYR Reporting Station
Clear Clear  
Wind Chill: -7°   Ceiling: Unl
Heat Index: 12°   Visibility: 15mi
Dew Point:   Wind: 22mph
Humidity: 57%   Direction: 270°W
Pressure: 29.81"   Gusts: 29mph
Location:  53.53°N, 60.15°W
Report Text: CYYR 232200Z 27019G25KT 15SM SKC M11/M18 A2981 RMK SLP100
Loading
Personal Weather Stations






























Interactive Weather Map New forecast layout! Learn more

10-Day Weather Forecast

Advertisements
Track Severe Weather on mobile